Time;durP1;ratioP1;P1;durP2;ratioP2;P2;SDS_P1;SDS_P2;PMS_P1;PMS_P2;Temp;Humidity;BMP_temperature;BMP_pressure;BME280_temperature;BME280_humidity;BME280_pressure;Samples;Min_cycle;Max_cycle;Signal;HPM_P1;HPM_P2
2022/10/20 00:02:06;;;;;;;24.03;14.00;;;12.20;99.90;;;;;;5073716;28;20195;-58
2022/10/20 00:05:00;;;;;;;28.10;15.07;;;12.20;99.90;;;;;;5073825;28;20208;-57
2022/10/20 00:07:30;;;;;;;28.30;15.37;;;12.20;99.90;;;;;;5077716;28;20196;-58
2022/10/20 00:09:58;;;;;;;26.87;14.83;;;12.20;99.90;;;;;;5092838;28;20188;-57
2022/10/20 00:13:06;;;;;;;27.07;14.63;;;12.20;99.90;;;;;;5083648;28;20200;-57
2022/10/20 00:16:17;;;;;;;26.63;14.90;;;12.10;99.90;;;;;;5106201;28;20197;-57
2022/10/20 00:18:52;;;;;;;22.37;14.23;;;12.10;99.90;;;;;;5088567;28;20207;-57
2022/10/20 00:21:58;;;;;;;27.10;15.37;;;12.00;99.90;;;;;;5093690;28;20194;-58
2022/10/20 00:24:28;;;;;;;28.57;15.53;;;12.00;99.90;;;;;;5093449;28;20205;-59
2022/10/20 00:30:33;;;;;;;22.97;14.40;;;11.90;99.90;;;;;;5092243;28;20633;-58
2022/10/20 00:33:33;;;;;;;28.67;15.17;;;11.90;99.90;;;;;;5092144;28;20176;-58
2022/10/20 00:36:39;;;;;;;27.70;15.10;;;11.90;99.90;;;;;;5093376;28;20203;-58
2022/10/20 00:43:46;;;;;;;23.00;14.67;;;11.80;99.90;;;;;;5086532;28;20502;-58
2022/10/20 00:46:40;;;;;;;26.30;15.33;;;11.80;99.90;;;;;;5085369;28;20203;-58
2022/10/20 00:53:18;;;;;;;24.87;14.87;;;11.80;99.90;;;;;;5072821;28;20195;-58
2022/10/20 00:55:50;;;;;;;26.30;15.00;;;11.80;99.90;;;;;;5079430;28;20194;-59
2022/10/20 00:59:09;;;;;;;34.93;16.00;;;11.80;99.90;;;;;;5087078;28;20256;-58
2022/10/20 01:02:10;;;;;;;28.30;16.00;;;11.80;99.90;;;;;;5092913;28;20202;-59
2022/10/20 01:05:17;;;;;;;28.60;15.57;;;11.80;99.90;;;;;;5085223;28;20579;-57
2022/10/20 01:07:47;;;;;;;25.73;15.37;;;11.70;99.90;;;;;;5078482;28;20198;-58
2022/10/20 01:10:17;;;;;;;28.13;15.63;;;11.70;99.90;;;;;;5092674;28;20195;-57
2022/10/20 01:16:34;;;;;;;31.80;15.37;;;11.70;99.90;;;;;;5071486;28;20563;-58
2022/10/20 01:19:39;;;;;;;29.43;15.63;;;11.70;99.90;;;;;;5083612;28;20210;-59
2022/10/20 01:22:54;;;;;;;28.40;14.93;;;11.70;99.90;;;;;;5071442;28;20184;-58
2022/10/20 01:26:03;;;;;;;30.30;16.13;;;11.70;99.90;;;;;;5072836;28;20185;-58
2022/10/20 01:28:45;;;;;;;27.53;15.67;;;11.70;99.90;;;;;;5073925;28;20180;-58
2022/10/20 01:36:03;;;;;;;32.10;16.50;;;11.70;99.90;;;;;;5072502;28;20801;-57
2022/10/20 01:38:40;;;;;;;31.47;17.23;;;11.70;99.90;;;;;;5072204;28;20207;-59
2022/10/20 01:41:18;;;;;;;28.43;16.43;;;11.70;99.90;;;;;;5073337;28;20200;-58
2022/10/20 01:43:51;;;;;;;29.60;16.70;;;11.70;99.90;;;;;;5090688;28;20202;-58
2022/10/20 01:46:23;;;;;;;26.73;16.20;;;11.70;99.90;;;;;;5095591;28;20199;-58
2022/10/20 01:48:51;;;;;;;29.70;16.43;;;11.70;99.90;;;;;;5078435;28;20612;-59
2022/10/20 01:51:39;;;;;;;27.47;17.20;;;11.70;99.90;;;;;;5076028;28;20577;-58
2022/10/20 01:54:20;;;;;;;28.03;17.03;;;11.70;99.90;;;;;;5076805;28;20279;-58
2022/10/20 02:01:17;;;;;;;29.47;16.30;;;11.70;99.90;;;;;;5090535;28;20686;-58
2022/10/20 02:03:53;;;;;;;29.27;16.63;;;11.70;99.90;;;;;;5096382;28;20199;-58
2022/10/20 02:06:42;;;;;;;33.23;17.07;;;11.70;99.90;;;;;;5091516;28;20200;-58
2022/10/20 02:09:17;;;;;;;31.03;17.20;;;11.70;99.90;;;;;;5074977;28;20642;-58
2022/10/20 02:12:26;;;;;;;29.67;16.83;;;11.70;99.90;;;;;;5094216;28;20518;-58
2022/10/20 02:15:00;;;;;;;27.20;15.80;;;11.70;99.90;;;;;;5085826;28;20218;-58
2022/10/20 02:18:07;;;;;;;29.97;16.90;;;11.70;99.90;;;;;;5093416;28;20196;-58
2022/10/20 02:25:33;;;;;;;30.27;17.23;;;11.60;99.90;;;;;;5076019;28;20217;-58
2022/10/20 02:28:43;;;;;;;29.97;16.53;;;11.60;99.90;;;;;;5092557;28;20195;-59
2022/10/20 02:31:14;;;;;;;26.87;15.83;;;11.60;99.90;;;;;;5095995;28;20209;-58
2022/10/20 02:33:44;;;;;;;28.47;15.93;;;11.60;99.90;;;;;;5094747;28;20278;-58
2022/10/20 02:36:43;;;;;;;32.77;16.37;;;11.60;99.90;;;;;;5095433;28;20545;-58
2022/10/20 02:43:34;;;;;;;24.17;15.00;;;11.60;99.90;;;;;;5074051;28;20176;-58
2022/10/20 02:49:41;;;;;;;27.37;15.03;;;11.50;99.90;;;;;;5075204;28;20864;-57
2022/10/20 02:56:17;;;;;;;35.73;15.63;;;11.50;99.90;;;;;;5075248;28;20275;-58
2022/10/20 02:58:50;;;;;;;28.30;15.20;;;11.40;99.90;;;;;;5064156;28;20215;-58
2022/10/20 03:10:18;;;;;;;24.60;14.87;;;11.30;99.90;;;;;;5084937;28;20163;-58
2022/10/20 03:12:47;;;;;;;30.53;16.10;;;11.20;99.90;;;;;;5094920;28;20240;-58
2022/10/20 03:15:16;;;;;;;25.43;15.00;;;11.10;99.90;;;;;;5095021;28;20675;-58
2022/10/20 03:25:35;;;;;;;28.97;16.53;;;11.10;99.90;;;;;;5091226;28;20550;-58
2022/10/20 03:28:03;;;;;;;24.17;14.87;;;11.10;99.90;;;;;;5094487;28;20215;-58
2022/10/20 03:30:36;;;;;;;29.70;17.33;;;11.10;99.90;;;;;;5094553;28;20196;-58
2022/10/20 03:33:05;;;;;;;28.67;16.70;;;11.10;99.90;;;;;;5094740;28;20227;-58
2022/10/20 03:35:34;;;;;;;30.20;17.13;;;11.00;99.90;;;;;;5094658;28;20515;-58
2022/10/20 03:38:45;;;;;;;31.97;16.23;;;11.00;99.90;;;;;;5094428;28;20191;-58
2022/10/20 03:45:15;;;;;;;23.47;14.27;;;10.90;99.90;;;;;;5074190;28;20183;-58
2022/10/20 03:51:57;;;;;;;23.80;15.20;;;10.90;99.90;;;;;;5078910;28;20204;-57
2022/10/20 03:54:26;;;;;;;27.17;15.80;;;10.80;99.90;;;;;;5073801;28;20442;-58
2022/10/20 03:56:54;;;;;;;31.87;16.63;;;10.80;99.90;;;;;;5072402;28;20177;-58
2022/10/20 03:59:23;;;;;;;31.13;15.93;;;10.80;99.90;;;;;;5073544;28;20232;-57
2022/10/20 04:01:57;;;;;;;27.10;15.70;;;10.80;99.90;;;;;;5087241;28;20203;-57
2022/10/20 04:07:56;;;;;;;31.47;17.47;;;10.70;99.90;;;;;;5073362;28;20891;-60
2022/10/20 04:11:03;;;;;;;31.80;15.80;;;10.70;99.90;;;;;;5079495;28;20188;-57
2022/10/20 04:14:14;;;;;;;29.30;17.30;;;10.70;99.90;;;;;;5093440;28;20253;-57
2022/10/20 04:17:22;;;;;;;30.50;16.47;;;10.80;99.90;;;;;;5093356;28;20728;-57
2022/10/20 04:20:30;;;;;;;35.70;17.60;;;10.80;99.90;;;;;;5093127;28;20673;-58
2022/10/20 04:23:40;;;;;;;34.27;17.73;;;10.70;99.90;;;;;;5081966;28;20242;-58
2022/10/20 04:26:48;;;;;;;29.67;16.80;;;10.70;99.90;;;;;;5092350;28;20202;-58
2022/10/20 04:30:16;;;;;;;26.60;16.73;;;10.70;99.90;;;;;;5085309;28;20603;-57
2022/10/20 04:33:51;;;;;;;30.17;16.97;;;10.70;99.90;;;;;;5085432;28;20238;-58
2022/10/20 04:37:18;;;;;;;30.27;17.17;;;10.70;99.90;;;;;;5077856;28;20222;-57
2022/10/20 04:40:32;;;;;;;31.90;17.67;;;10.80;99.90;;;;;;5082528;28;20772;-59
2022/10/20 04:48:18;;;;;;;28.67;16.73;;;10.90;99.90;;;;;;5076819;28;20187;-59
2022/10/20 04:51:26;;;;;;;27.27;16.97;;;11.00;99.90;;;;;;5090938;28;20272;-57
2022/10/20 04:54:35;;;;;;;26.13;15.80;;;11.00;99.90;;;;;;5087985;28;20200;-58
2022/10/20 04:57:45;;;;;;;27.83;16.13;;;11.00;99.90;;;;;;5085109;28;20555;-58
2022/10/20 05:00:53;;;;;;;29.87;16.50;;;10.90;99.90;;;;;;5092679;28;20227;-58
2022/10/20 05:09:12;;;;;;;31.73;16.33;;;10.90;99.90;;;;;;5086760;28;20752;-58
2022/10/20 05:13:02;;;;;;;28.50;16.73;;;10.80;99.90;;;;;;5083838;28;20557;-57
2022/10/20 05:16:11;;;;;;;30.47;16.07;;;10.90;99.90;;;;;;5072298;28;20185;-58
2022/10/20 05:19:18;;;;;;;31.20;16.33;;;10.90;99.90;;;;;;5087770;28;20203;-58
2022/10/20 05:22:25;;;;;;;26.30;15.83;;;10.90;99.90;;;;;;5092576;28;20191;-58
2022/10/20 05:25:32;;;;;;;27.83;15.30;;;10.90;99.90;;;;;;5088660;28;20226;-58
2022/10/20 05:29:13;;;;;;;33.20;16.53;;;10.90;99.90;;;;;;5094241;28;20574;-58
2022/10/20 05:32:23;;;;;;;28.90;15.73;;;11.00;99.90;;;;;;5092200;28;20274;-58
2022/10/20 05:44:51;;;;;;;31.97;15.80;;;11.20;99.90;;;;;;5086899;28;20211;-58
2022/10/20 05:48:35;;;;;;;25.30;15.60;;;11.30;99.90;;;;;;5082155;28;20199;-58
2022/10/20 05:51:50;;;;;;;25.87;15.77;;;11.30;99.90;;;;;;5077980;28;20196;-58
2022/10/20 05:55:16;;;;;;;30.77;16.50;;;11.40;99.90;;;;;;5077446;28;20211;-57
2022/10/20 05:58:25;;;;;;;27.13;15.80;;;11.40;99.90;;;;;;5088670;28;20224;-59
2022/10/20 06:01:46;;;;;;;28.57;16.17;;;11.40;99.90;;;;;;5084830;28;20215;-57
2022/10/20 06:04:54;;;;;;;27.03;14.50;;;11.40;99.90;;;;;;5073700;28;20261;-57
2022/10/20 06:08:42;;;;;;;29.33;16.20;;;11.50;99.90;;;;;;5088764;28;20595;-57
2022/10/20 06:11:51;;;;;;;24.90;15.43;;;11.50;99.90;;;;;;5076187;28;20310;-57
2022/10/20 06:15:19;;;;;;;31.47;15.93;;;11.60;99.90;;;;;;5083622;28;20200;-57
2022/10/20 06:18:27;;;;;;;29.53;15.43;;;11.70;99.90;;;;;;5088295;28;20646;-58
2022/10/20 06:21:18;;;;;;;26.37;14.83;;;11.80;99.90;;;;;;5077940;28;20212;-58
2022/10/20 06:24:06;;;;;;;24.27;14.43;;;11.80;99.90;;;;;;5091343;28;20207;-58
2022/10/20 06:26:55;;;;;;;25.77;14.87;;;11.80;99.90;;;;;;5091638;28;20657;-58
2022/10/20 06:29:46;;;;;;;23.20;14.93;;;11.80;99.90;;;;;;5094068;28;20681;-58
2022/10/20 06:33:11;;;;;;;30.70;15.50;;;11.80;99.90;;;;;;5095552;28;20207;-57
2022/10/20 06:36:00;;;;;;;24.63;15.63;;;11.90;99.90;;;;;;5096437;28;20681;-57
2022/10/20 06:42:37;;;;;;;23.03;14.37;;;12.20;99.90;;;;;;5078135;28;20244;-57
2022/10/20 06:45:24;;;;;;;24.13;13.90;;;12.30;99.90;;;;;;5085121;28;20207;-57
2022/10/20 06:53:09;;;;;;;23.43;14.10;;;12.40;99.90;;;;;;5108011;28;20177;-58
2022/10/20 06:56:46;;;;;;;23.40;13.83;;;12.50;99.90;;;;;;5088850;28;20211;-57
2022/10/20 06:59:35;;;;;;;23.47;14.30;;;12.50;99.90;;;;;;5095305;28;20227;-58
2022/10/20 07:07:14;;;;;;;20.60;13.23;;;12.70;99.90;;;;;;5094979;28;20199;-57
2022/10/20 07:10:01;;;;;;;24.30;12.83;;;12.80;99.90;;;;;;5087189;28;20659;-58
2022/10/20 07:13:07;;;;;;;23.77;13.20;;;12.80;99.90;;;;;;5091176;28;20223;-58
2022/10/20 07:16:01;;;;;;;21.33;12.67;;;12.90;99.90;;;;;;5091680;28;20223;-58
2022/10/20 07:19:27;;;;;;;22.83;13.37;;;12.90;99.90;;;;;;5097483;28;20203;-58
2022/10/20 07:22:14;;;;;;;17.70;12.03;;;13.00;99.90;;;;;;5074607;28;20535;-58
2022/10/20 07:25:42;;;;;;;20.57;12.53;;;13.10;99.90;;;;;;5089983;28;20290;-58
2022/10/20 07:28:29;;;;;;;15.43;12.77;;;13.10;99.90;;;;;;5094234;28;20211;-59
2022/10/20 07:35:08;;;;;;;18.57;11.67;;;13.30;99.90;;;;;;5083683;28;20681;-58
2022/10/20 07:37:55;;;;;;;19.20;12.07;;;13.30;99.90;;;;;;5092553;28;20215;-58
2022/10/20 07:41:12;;;;;;;15.50;11.87;;;13.40;99.90;;;;;;5096344;28;20564;-58
2022/10/20 07:43:59;;;;;;;17.10;11.83;;;13.40;99.90;;;;;;5091584;28;20661;-58
2022/10/20 07:47:13;;;;;;;16.37;12.30;;;13.40;99.90;;;;;;5093840;28;20208;-58
2022/10/20 07:50:00;;;;;;;19.20;11.13;;;13.50;99.90;;;;;;5084761;28;20220;-58
2022/10/20 07:57:32;;;;;;;23.23;11.87;;;13.50;99.90;;;;;;5080251;28;20190;-59
2022/10/20 08:01:01;;;;;;;17.33;11.70;;;13.50;99.90;;;;;;5108098;28;20227;-58
2022/10/20 08:04:18;;;;;;;19.97;12.23;;;13.60;99.90;;;;;;5099002;28;20631;-58
2022/10/20 08:07:44;;;;;;;21.27;12.47;;;13.70;99.90;;;;;;5087698;28;20211;-58
2022/10/20 08:11:23;;;;;;;20.10;12.67;;;13.80;99.90;;;;;;5088131;28;20697;-58
2022/10/20 08:14:40;;;;;;;19.20;11.57;;;13.80;99.90;;;;;;5090278;28;20195;-58
2022/10/20 08:17:49;;;;;;;20.30;11.80;;;13.80;99.90;;;;;;5092799;28;20654;-58
2022/10/20 08:20:37;;;;;;;19.60;12.30;;;13.90;99.90;;;;;;5092840;28;20210;-59
2022/10/20 08:27:18;;;;;;;22.57;12.83;;;13.90;99.90;;;;;;5091125;28;20215;-59
2022/10/20 08:30:13;;;;;;;21.37;13.50;;;14.00;99.90;;;;;;5080516;28;20203;-58
2022/10/20 08:37:04;;;;;;;28.73;13.23;;;14.00;99.90;;;;;;5084578;28;20283;-58
2022/10/20 08:39:51;;;;;;;20.80;13.90;;;14.00;99.90;;;;;;5092664;28;20653;-59
2022/10/20 08:42:43;;;;;;;21.23;14.17;;;14.00;99.90;;;;;;5095970;28;20223;-59
2022/10/20 08:45:33;;;;;;;22.57;13.97;;;14.00;99.90;;;;;;5090255;28;20291;-59
2022/10/20 08:49:05;;;;;;;25.17;15.30;;;14.10;99.90;;;;;;5078904;28;20289;-59
2022/10/20 08:51:53;;;;;;;75.47;47.07;;;14.10;99.90;;;;;;5088966;28;20207;-59
2022/10/20 08:54:39;;;;;;;28.00;16.33;;;14.20;99.90;;;;;;5088864;28;20223;-59
2022/10/20 08:57:30;;;;;;;30.23;16.53;;;14.20;99.90;;;;;;5089031;28;20211;-59
2022/10/20 09:00:24;;;;;;;42.60;24.43;;;14.20;99.90;;;;;;5086069;28;20302;-59
2022/10/20 09:03:18;;;;;;;34.00;20.23;;;14.30;99.90;;;;;;5090673;28;20682;-59
2022/10/20 09:06:25;;;;;;;32.50;20.43;;;14.40;99.90;;;;;;5073017;28;20212;-59
2022/10/20 09:09:19;;;;;;;40.60;21.40;;;14.50;99.90;;;;;;5085708;28;20195;-59
2022/10/20 09:12:43;;;;;;;50.87;26.70;;;14.50;99.90;;;;;;5088580;28;20319;-59
2022/10/20 09:15:31;;;;;;;51.20;28.97;;;14.60;99.90;;;;;;5081735;28;20211;-59
2022/10/20 09:26:20;;;;;;;28.93;16.13;;;14.80;99.90;;;;;;5085496;28;20250;-59
2022/10/20 09:29:36;;;;;;;30.67;17.20;;;15.00;99.90;;;;;;5081238;28;20199;-58
2022/10/20 09:32:33;;;;;;;30.30;17.03;;;15.10;99.90;;;;;;5101258;28;20698;-58
2022/10/20 09:35:36;;;;;;;31.43;19.53;;;15.20;99.90;;;;;;5100340;28;20207;-58
2022/10/20 09:38:28;;;;;;;33.20;16.40;;;15.30;99.90;;;;;;5092268;28;20209;-60
2022/10/20 09:41:20;;;;;;;27.67;16.40;;;15.40;99.90;;;;;;5093513;28;20224;-58
2022/10/20 09:44:14;;;;;;;23.73;16.53;;;15.40;99.90;;;;;;5092669;28;20199;-58
2022/10/20 09:47:28;;;;;;;23.17;15.90;;;15.60;99.90;;;;;;5092003;28;20213;-58
2022/10/20 09:50:57;;;;;;;25.70;16.23;;;15.70;99.90;;;;;;5072132;28;20196;-58
2022/10/20 09:53:57;;;;;;;27.37;17.63;;;15.80;99.90;;;;;;5072654;28;20597;-59
2022/10/20 09:56:48;;;;;;;23.87;14.93;;;16.00;99.90;;;;;;5088197;28;20880;-59
2022/10/20 09:59:40;;;;;;;22.27;14.10;;;16.10;99.90;;;;;;5085760;28;20231;-58
2022/10/20 10:02:30;;;;;;;23.07;13.27;;;16.10;99.90;;;;;;5091402;28;20211;-57
2022/10/20 10:05:20;;;;;;;21.17;13.07;;;16.30;99.90;;;;;;5086767;28;20207;-58
2022/10/20 10:08:41;;;;;;;20.07;13.47;;;16.40;99.90;;;;;;5092388;28;20323;-58
2022/10/20 10:12:05;;;;;;;20.20;11.93;;;16.50;99.90;;;;;;5090394;28;20228;-57
2022/10/20 10:14:57;;;;;;;30.43;14.17;;;16.50;99.90;;;;;;5076524;28;20646;-58
2022/10/20 10:18:22;;;;;;;24.43;13.17;;;16.50;99.90;;;;;;5104246;28;20208;-58
2022/10/20 10:21:16;;;;;;;16.17;11.17;;;16.50;99.90;;;;;;5094869;28;20217;-58
2022/10/20 10:24:30;;;;;;;22.00;11.97;;;16.40;99.90;;;;;;5095419;28;20212;-58
2022/10/20 10:27:25;;;;;;;19.63;10.83;;;16.50;99.90;;;;;;5083605;28;20227;-57
2022/10/20 10:30:34;;;;;;;18.17;10.90;;;16.70;99.90;;;;;;5095526;28;20653;-57
2022/10/20 10:33:26;;;;;;;18.67;10.77;;;17.10;99.90;;;;;;5084719;28;20566;-57
2022/10/20 10:36:34;;;;;;;14.77;9.97;;;17.20;99.90;;;;;;5075256;28;20721;-57
2022/10/20 10:39:22;;;;;;;13.33;8.83;;;17.10;99.90;;;;;;5079356;28;20224;-58
2022/10/20 10:46:27;;;;;;;14.63;9.33;;;17.10;99.90;;;;;;5092558;28;20187;-57
2022/10/20 10:49:40;;;;;;;17.00;8.70;;;17.30;99.90;;;;;;5080792;28;20744;-57
2022/10/20 10:52:38;;;;;;;13.63;8.50;;;17.30;99.90;;;;;;5086930;28;20292;-57
2022/10/20 10:55:29;;;;;;;14.93;8.90;;;17.40;99.90;;;;;;5093990;28;20211;-58
2022/10/20 10:58:45;;;;;;;17.53;8.73;;;17.50;99.90;;;;;;5087087;28;20576;-57
2022/10/20 11:02:02;;;;;;;14.87;8.00;;;17.50;99.90;;;;;;5092519;28;20676;-58
2022/10/20 11:05:21;;;;;;;13.73;7.37;;;17.70;99.90;;;;;;5091280;28;20216;-59
2022/10/20 11:08:22;;;;;;;12.40;7.60;;;18.00;99.90;;;;;;5083624;28;20299;-58
2022/10/20 11:11:21;;;;;;;10.30;6.47;;;18.00;99.90;;;;;;5095181;28;20211;-58
2022/10/20 11:14:18;;;;;;;14.37;6.80;;;18.10;99.90;;;;;;5087439;28;20207;-57
2022/10/20 11:17:25;;;;;;;14.23;7.47;;;18.00;99.90;;;;;;5083603;28;20203;-58
2022/10/20 11:20:35;;;;;;;16.17;7.13;;;18.00;99.90;;;;;;5095248;28;20223;-57
2022/10/20 11:24:00;;;;;;;13.30;6.53;;;18.00;99.90;;;;;;5082411;28;20227;-58
2022/10/20 11:26:53;;;;;;;9.40;5.93;;;18.20;99.90;;;;;;5090765;28;20227;-58
2022/10/20 11:29:44;;;;;;;18.57;7.00;;;18.20;99.90;;;;;;5095466;28;20203;-58
2022/10/20 11:32:39;;;;;;;10.47;6.80;;;18.30;99.90;;;;;;5075365;28;20200;-58
2022/10/20 11:35:33;;;;;;;10.13;6.20;;;18.40;99.90;;;;;;5092819;28;20206;-59
2022/10/20 11:38:30;;;;;;;8.33;5.70;;;18.30;99.90;;;;;;5095339;28;20204;-58
2022/10/20 11:41:24;;;;;;;11.60;6.47;;;18.40;99.90;;;;;;5091325;28;20211;-57
2022/10/20 11:44:21;;;;;;;7.47;6.40;;;18.40;99.90;;;;;;5080295;28;20215;-57
2022/10/20 11:47:32;;;;;;;13.23;6.10;;;18.30;99.90;;;;;;5093889;28;20211;-58
2022/10/20 11:50:26;;;;;;;8.73;5.87;;;18.30;99.90;;;;;;5090366;28;20200;-57
2022/10/20 11:53:36;;;;;;;11.40;5.87;;;18.40;99.90;;;;;;5086139;28;20211;-57
2022/10/20 11:56:47;;;;;;;9.80;5.40;;;18.60;99.90;;;;;;5088008;28;20267;-57
2022/10/20 12:00:02;;;;;;;8.60;5.70;;;19.10;99.90;;;;;;5069321;28;20228;-57
2022/10/20 12:03:26;;;;;;;11.07;5.60;;;19.40;99.90;;;;;;5090661;28;20223;-57
2022/10/20 12:10:21;;;;;;;8.63;4.70;;;19.90;99.90;;;;;;5088158;28;20219;-57
2022/10/20 12:13:24;;;;;;;6.97;3.93;;;19.80;99.90;;;;;;5093067;28;20237;-57
2022/10/20 12:16:12;;;;;;;6.63;3.57;;;19.90;99.90;;;;;;5089308;28;20238;-58
2022/10/20 12:19:16;;;;;;;6.33;3.57;;;20.00;99.90;;;;;;5093432;28;20223;-58
2022/10/20 12:22:05;;;;;;;7.37;3.47;;;20.30;99.90;;;;;;5092940;28;20206;-57
2022/10/20 12:25:34;;;;;;;7.43;3.00;;;20.50;99.90;;;;;;5091107;28;20219;-58
2022/10/20 12:28:42;;;;;;;4.57;2.77;;;20.60;99.90;;;;;;5057413;28;20202;-58
2022/10/20 12:32:19;;;;;;;8.07;2.97;;;20.80;99.90;;;;;;5092041;28;20203;-58
2022/10/20 12:35:49;;;;;;;4.13;2.83;;;20.90;99.90;;;;;;5084767;28;20650;-57
2022/10/20 12:38:43;;;;;;;4.30;2.70;;;20.90;99.90;;;;;;5080275;28;20210;-58
2022/10/20 12:41:58;;;;;;;2.80;2.50;;;21.00;99.90;;;;;;5105669;28;20684;-58
2022/10/20 12:44:49;;;;;;;4.63;2.57;;;21.10;99.90;;;;;;5077374;28;20231;-58
2022/10/20 12:47:47;;;;;;;3.30;2.37;;;21.20;99.90;;;;;;5090855;28;20200;-58
2022/10/20 12:50:38;;;;;;;5.43;2.70;;;21.10;99.90;;;;;;5087953;28;20246;-58
2022/10/20 12:53:28;;;;;;;5.07;2.73;;;20.70;99.90;;;;;;5081077;28;20241;-58
2022/10/20 12:56:20;;;;;;;4.23;2.87;;;20.40;99.90;;;;;;5092266;28;20203;-58
2022/10/20 12:59:23;;;;;;;7.40;2.90;;;20.30;99.90;;;;;;5080211;28;20262;-58
2022/10/20 13:02:33;;;;;;;5.40;3.13;;;20.20;99.90;;;;;;5079057;28;20234;-58
2022/10/20 13:05:48;;;;;;;4.60;2.80;;;20.30;99.90;;;;;;5083129;28;20570;-58
2022/10/20 13:08:36;;;;;;;6.90;2.80;;;20.40;99.90;;;;;;5091167;28;20415;-58
2022/10/20 13:12:02;;;;;;;5.90;2.90;;;20.60;99.90;;;;;;5089630;28;20290;-58
2022/10/20 13:14:54;;;;;;;2.80;2.57;;;20.60;99.90;;;;;;5087769;28;20203;-57
2022/10/20 13:17:54;;;;;;;3.00;2.80;;;20.50;99.90;;;;;;5091083;28;20257;-58
2022/10/20 13:20:46;;;;;;;3.83;2.67;;;20.50;99.90;;;;;;5085738;28;20274;-57
2022/10/20 13:23:39;;;;;;;3.87;2.90;;;20.50;99.90;;;;;;5088628;28;20215;-58
2022/10/20 13:26:37;;;;;;;8.90;3.30;;;20.60;99.90;;;;;;5091765;28;20234;-58
2022/10/20 13:29:46;;;;;;;5.33;3.27;;;20.60;99.90;;;;;;5089177;28;20211;-58
2022/10/20 13:32:44;;;;;;;6.40;2.80;;;20.70;99.90;;;;;;5086220;28;20216;-57
2022/10/20 13:36:00;;;;;;;4.30;2.57;;;20.60;99.90;;;;;;5084169;28;20680;-58
2022/10/20 13:38:53;;;;;;;5.47;2.60;;;20.50;99.90;;;;;;5095381;28;20207;-57
2022/10/20 13:46:06;;;;;;;3.53;2.43;;;20.60;99.90;;;;;;5083987;28;20207;-58
2022/10/20 13:49:08;;;;;;;5.30;2.30;;;20.80;99.90;;;;;;5094331;28;20290;-58
2022/10/20 13:52:02;;;;;;;4.97;2.53;;;20.80;99.90;;;;;;5095804;28;20195;-57
2022/10/20 13:54:51;;;;;;;5.03;2.60;;;20.80;99.90;;;;;;5095607;28;20203;-57
2022/10/20 13:57:49;;;;;;;3.83;2.43;;;20.90;99.90;;;;;;5091158;28;20211;-57
2022/10/20 14:00:41;;;;;;;2.23;2.13;;;20.80;99.90;;;;;;5093071;28;20227;-58
2022/10/20 14:04:07;;;;;;;3.03;2.50;;;20.80;99.90;;;;;;5090268;28;20199;-57
2022/10/20 14:07:02;;;;;;;2.93;2.60;;;20.90;99.90;;;;;;5091237;28;20207;-57
2022/10/20 14:10:29;;;;;;;3.30;2.63;;;21.10;99.90;;;;;;5094941;28;20207;-58
2022/10/20 14:13:20;;;;;;;2.53;2.33;;;21.10;99.90;;;;;;5091757;28;20301;-58
2022/10/20 14:21:01;;;;;;;2.87;2.40;;;21.20;99.90;;;;;;5090515;28;20340;-57
2022/10/20 14:23:51;;;;;;;6.60;2.27;;;21.30;99.90;;;;;;5091552;28;20223;-57
2022/10/20 14:27:17;;;;;;;5.07;2.83;;;21.40;99.90;;;;;;5087009;28;20203;-58
2022/10/20 14:30:14;;;;;;;2.70;2.50;;;21.30;99.90;;;;;;5092280;28;20599;-57
2022/10/20 14:33:02;;;;;;;5.87;2.77;;;21.30;99.90;;;;;;5094123;28;20215;-58
2022/10/20 14:35:54;;;;;;;6.10;2.50;;;21.30;99.90;;;;;;5094363;28;20774;-58
2022/10/20 14:38:47;;;;;;;3.87;2.30;;;21.20;99.90;;;;;;5085528;28;20212;-58
2022/10/20 14:42:02;;;;;;;3.63;2.37;;;21.20;99.90;;;;;;5093556;28;20195;-58
2022/10/20 14:44:51;;;;;;;4.80;2.60;;;21.40;99.90;;;;;;5092629;28;20228;-57
2022/10/20 14:47:41;;;;;;;4.60;2.37;;;21.40;99.90;;;;;;5093197;28;20211;-57
2022/10/20 14:50:34;;;;;;;2.77;2.57;;;21.30;99.90;;;;;;5092862;28;20199;-58
2022/10/20 14:53:47;;;;;;;4.53;2.20;;;21.30;99.90;;;;;;5089287;28;20203;-57
2022/10/20 14:56:42;;;;;;;4.93;2.37;;;21.10;99.90;;;;;;5093357;28;20679;-57
2022/10/20 14:59:35;;;;;;;3.67;2.07;;;21.00;99.90;;;;;;5092531;28;20231;-57
2022/10/20 15:02:27;;;;;;;4.93;2.30;;;20.90;99.90;;;;;;5088238;28;20219;-58
2022/10/20 15:09:04;;;;;;;3.87;2.20;;;20.90;99.90;;;;;;5088443;28;20842;-58
2022/10/20 15:11:53;;;;;;;3.50;2.27;;;20.90;99.90;;;;;;5087477;28;20203;-58
2022/10/20 15:14:46;;;;;;;3.00;2.63;;;20.80;99.90;;;;;;5088049;28;20627;-58
2022/10/20 15:18:08;;;;;;;3.07;2.23;;;20.80;99.90;;;;;;5093497;28;20216;-58
2022/10/20 15:21:23;;;;;;;5.83;2.70;;;20.70;99.90;;;;;;5092216;28;20242;-58
2022/10/20 15:24:48;;;;;;;6.80;3.17;;;20.60;99.90;;;;;;5087610;28;20211;-58
2022/10/20 15:27:36;;;;;;;4.00;2.60;;;20.50;99.90;;;;;;5088583;28;20211;-57
2022/10/20 15:30:25;;;;;;;3.00;2.70;;;20.50;99.90;;;;;;5076989;28;20227;-58
2022/10/20 15:33:14;;;;;;;2.87;2.57;;;20.50;99.90;;;;;;5084492;28;20203;-58
2022/10/20 15:36:02;;;;;;;7.80;2.87;;;20.40;99.90;;;;;;5093130;28;20550;-57
2022/10/20 15:38:54;;;;;;;4.70;2.70;;;20.50;99.90;;;;;;5087075;28;20696;-58
2022/10/20 15:42:01;;;;;;;3.33;3.03;;;20.50;99.90;;;;;;5087268;28;20748;-57
2022/10/20 15:44:49;;;;;;;4.57;3.00;;;20.40;99.90;;;;;;5093009;28;20252;-58
2022/10/20 15:47:57;;;;;;;7.33;3.37;;;20.30;99.90;;;;;;5089620;28;20183;-58
2022/10/20 15:50:45;;;;;;;5.63;2.93;;;20.20;99.90;;;;;;5085261;28;20624;-57
2022/10/20 15:53:34;;;;;;;8.87;2.93;;;20.20;99.90;;;;;;5091580;28;20645;-57
2022/10/20 15:56:23;;;;;;;7.70;3.20;;;20.20;99.90;;;;;;5089152;28;20207;-58
2022/10/20 15:59:46;;;;;;;5.50;2.93;;;20.10;99.90;;;;;;5084731;28;20225;-58
2022/10/20 16:02:35;;;;;;;4.73;3.30;;;20.10;99.90;;;;;;5088094;28;20203;-57
2022/10/20 16:05:24;;;;;;;8.80;4.40;;;20.20;99.90;;;;;;5093141;28;20216;-57
2022/10/20 16:08:17;;;;;;;9.40;4.17;;;20.10;99.90;;;;;;5080712;28;20196;-58
2022/10/20 16:11:22;;;;;;;8.03;6.33;;;20.00;99.90;;;;;;5086119;28;20208;-57
2022/10/20 16:14:09;;;;;;;6.87;3.47;;;20.00;99.90;;;;;;5077047;28;20779;-57
2022/10/20 16:16:56;;;;;;;6.03;3.10;;;19.90;99.90;;;;;;5079606;28;20207;-57
2022/10/20 16:19:46;;;;;;;6.73;3.63;;;19.80;99.90;;;;;;5085445;28;20215;-57
2022/10/20 16:26:31;;;;;;;41.40;20.97;;;19.60;99.90;;;;;;5086712;28;20215;-58
2022/10/20 16:29:18;;;;;;;11.47;7.97;;;19.50;99.90;;;;;;5092439;28;20207;-57
2022/10/20 16:32:05;;;;;;;10.40;6.00;;;19.40;99.90;;;;;;5093214;28;20630;-58
2022/10/20 16:34:53;;;;;;;13.93;6.27;;;19.30;99.90;;;;;;5093181;28;20294;-57
2022/10/20 16:37:42;;;;;;;4.07;3.17;;;19.30;99.90;;;;;;5091862;28;20207;-58
2022/10/20 16:40:30;;;;;;;7.70;3.97;;;19.10;99.90;;;;;;5087844;28;20606;-58
2022/10/20 16:43:19;;;;;;;5.50;3.50;;;19.00;99.90;;;;;;5086003;28;20211;-58
2022/10/20 16:46:10;;;;;;;5.67;3.77;;;19.00;99.90;;;;;;5090732;28;20277;-56
2022/10/20 16:48:57;;;;;;;67.43;34.67;;;18.90;99.90;;;;;;5091700;28;20219;-57
2022/10/20 16:51:45;;;;;;;11.10;6.40;;;18.90;99.90;;;;;;5091687;28;20584;-58
2022/10/20 16:58:43;;;;;;;7.80;4.70;;;18.90;99.90;;;;;;5074292;28;20184;-58
2022/10/20 17:01:57;;;;;;;13.30;8.17;;;18.90;99.90;;;;;;5091749;28;20701;-58
2022/10/20 17:05:25;;;;;;;7.67;5.13;;;18.80;99.90;;;;;;5091940;28;20302;-57
2022/10/20 17:08:13;;;;;;;5.30;4.67;;;18.80;99.90;;;;;;5093148;28;20195;-58
2022/10/20 17:11:39;;;;;;;9.30;4.13;;;18.70;99.90;;;;;;5072159;28;20200;-57
2022/10/20 17:14:56;;;;;;;4.70;4.27;;;18.60;99.90;;;;;;5090992;28;20240;-57
2022/10/20 17:18:21;;;;;;;12.60;6.43;;;18.60;99.90;;;;;;5082363;28;20225;-58
2022/10/20 17:21:11;;;;;;;8.53;5.97;;;18.50;99.90;;;;;;5085916;28;20705;-59
2022/10/20 17:24:36;;;;;;;25.50;14.80;;;18.40;99.90;;;;;;5085067;28;20227;-58
2022/10/20 17:27:23;;;;;;;10.47;6.63;;;18.40;99.90;;;;;;5091043;28;20570;-58
2022/10/20 17:30:12;;;;;;;13.97;8.10;;;18.40;99.90;;;;;;5076053;28;20219;-58
2022/10/20 17:33:00;;;;;;;7.20;5.63;;;18.30;99.90;;;;;;5080295;28;20290;-57
2022/10/20 17:36:06;;;;;;;9.17;5.87;;;18.30;99.90;;;;;;5090427;28;20848;-59
2022/10/20 17:38:57;;;;;;;7.73;5.53;;;18.20;99.90;;;;;;5090801;28;20706;-58
2022/10/20 17:42:21;;;;;;;9.23;4.73;;;18.10;99.90;;;;;;5072000;28;20590;-57
2022/10/20 17:45:14;;;;;;;7.70;4.33;;;18.00;99.90;;;;;;5081369;28;20204;-57
2022/10/20 17:48:02;;;;;;;8.57;5.43;;;17.90;99.90;;;;;;5088651;28;20208;-57
2022/10/20 17:50:59;;;;;;;10.43;5.77;;;17.90;99.90;;;;;;5087918;28;20224;-58